Time,TemperatureF,DewpointF,PressureIn,WindDirection,WindDirectionDegrees,WindSpeedMPH,WindSpeedGustMPH,Humidity,HourlyPrecipIn,Conditions,Clouds,dailyrainin,SoftwareType,DateUTC
2013-11-07 00:00:00,27.7,22.9,30.21,WSW,248,0.0,0.0,82,0.00,,OVC040,0.00,VWS V14.01,2013-11-07 05:00:00,
2013-11-07 00:01:00,56.1,44.1,30.06,SSE,158,0.0,2.9,64,0.00,,CLR,0.00,VWS V14.01,2013-11-07 05:01:00,
2013-11-07 00:06:00,55.8,43.8,30.06,SE,135,0.0,3.1,64,0.00,,CLR,0.00,VWS V14.01,2013-11-07 05:06:00,
2013-11-07 00:11:00,55.9,44.0,30.09,South,180,2.0,2.0,64,0.00,,CLR,0.00,VWS V14.01,2013-11-07 05:11:00,
2013-11-07 00:16:00,56.5,44.5,30.09,ESE,112,7.8,7.8,64,0.00,,CLR,0.00,VWS V14.01,2013-11-07 05:16:00,
2013-11-07 00:21:00,57.2,44.7,30.09,SSE,158,1.6,4.9,63,0.00,,CLR,0.00,VWS V14.01,2013-11-07 05:21:00,
2013-11-07 00:26:00,57.7,44.0,30.06,SE,135,3.1,6.5,60,0.00,,CLR,0.00,VWS V14.01,2013-11-07 05:26:00,
2013-11-07 00:31:00,57.9,44.1,30.06,South,180,0.0,4.3,60,0.00,,CLR,0.00,VWS V14.01,2013-11-07 05:31:00,
2013-11-07 00:36:00,58.1,43.9,30.06,South,180,2.9,4.9,59,0.00,,BKN050,0.00,VWS V14.01,2013-11-07 05:36:00,
2013-11-07 00:41:00,58.6,43.9,30.06,South,180,2.5,7.2,58,0.00,,BKN050,0.00,VWS V14.01,2013-11-07 05:41:00,
2013-11-07 00:46:00,58.6,43.5,30.06,ESE,112,3.4,4.3,57,0.00,,BKN050,0.00,VWS V14.01,2013-11-07 05:46:00,
2013-11-07 00:51:00,58.8,43.6,30.06,ESE,112,1.6,5.4,57,0.00,,BKN050,0.00,VWS V14.01,2013-11-07 05:51:00,
2013-11-07 00:56:00,58.8,43.2,30.06,South,180,1.1,4.0,56,0.00,,BKN050,0.00,VWS V14.01,2013-11-07 05:56:00,
2013-11-07 01:01:00,59.0,43.3,30.06,SE,135,1.3,3.8,56,0.00,,BKN050,0.00,VWS V14.01,2013-11-07 06:01:00,
2013-11-07 01:06:00,59.0,43.3,30.06,SSE,158,2.7,6.3,56,0.00,,BKN050,0.00,VWS V14.01,2013-11-07 06:06:00,
2013-11-07 01:11:00,59.0,42.9,30.03,ESE,112,2.5,4.7,55,0.00,,BKN050,0.00,VWS V14.01,2013-11-07 06:11:00,
2013-11-07 01:16:00,59.0,42.9,30.03,South,180,4.0,5.4,55,0.00,,BKN050,0.00,VWS V14.01,2013-11-07 06:16:00,
2013-11-07 01:21:00,59.0,43.3,30.03,SE,135,3.4,6.0,56,0.00,,BKN050,0.00,VWS V14.01,2013-11-07 06:21:00,
2013-11-07 01:26:00,59.0,43.3,30.03,ESE,112,6.3,6.3,56,0.00,,BKN050,0.00,VWS V14.01,2013-11-07 06:26:00,
2013-11-07 01:31:00,59.0,43.3,30.03,SSE,158,1.1,5.6,56,0.00,,BKN050,0.00,VWS V14.01,2013-11-07 06:31:00,
2013-11-07 01:36:00,59.0,43.3,30.03,SSE,158,2.5,4.0,56,0.00,,OVC050,0.00,VWS V14.01,2013-11-07 06:36:00,
2013-11-07 01:41:00,59.2,43.5,30.03,South,180,2.7,5.8,56,0.00,,OVC050,0.00,VWS V14.01,2013-11-07 06:41:00,
2013-11-07 01:46:00,59.2,43.5,30.03,ENE,68,1.6,4.9,56,0.00,,OVC050,0.00,VWS V14.01,2013-11-07 06:46:00,
2013-11-07 01:51:00,59.2,43.5,30.03,South,180,1.3,3.8,56,0.00,,OVC050,0.00,VWS V14.01,2013-11-07 06:51:00,
2013-11-07 01:56:00,59.0,43.3,30.03,SE,135,1.6,3.4,56,0.00,,OVC050,0.00,VWS V14.01,2013-11-07 06:56:00,
2013-11-07 02:00:00,59.0,44.3,30.03,SE,135,6.7,6.7,58,0.00,,OVC050,0.00,VWS V14.01,2013-11-07 07:00:00,
2013-11-07 02:05:00,58.5,45.1,30.03,NE,45,4.0,10.1,61,0.00,,OVC050,0.00,VWS V14.01,2013-11-07 07:05:00,
2013-11-07 02:10:00,57.7,46.1,30.03,ESE,112,1.6,7.8,65,0.00,,OVC050,0.00,VWS V14.01,2013-11-07 07:10:00,
2013-11-07 02:15:00,57.4,46.5,30.03,South,180,4.9,8.5,67,0.00,,OVC050,0.00,VWS V14.01,2013-11-07 07:15:00,
2013-11-07 02:20:00,57.4,47.3,30.03,East,90,4.7,8.1,69,0.00,,OVC050,0.00,VWS V14.01,2013-11-07 07:20:00,
2013-11-07 02:25:00,57.0,47.7,30.00,ESE,112,3.4,6.9,71,0.00,,OVC050,0.00,VWS V14.01,2013-11-07 07:25:00,
2013-11-07 02:30:00,56.8,47.9,30.00,East,90,1.6,5.6,72,0.00,,OVC050,0.00,VWS V14.01,2013-11-07 07:30:00,
2013-11-07 02:35:00,56.7,47.4,30.00,SE,135,2.9,6.5,71,0.00,,OVC045,0.00,VWS V14.01,2013-11-07 07:35:00,
2013-11-07 02:40:00,56.7,48.1,30.03,ENE,68,3.6,5.8,73,0.00,,OVC045,0.00,VWS V14.01,2013-11-07 07:40:00,
2013-11-07 02:45:00,56.7,48.1,30.03,East,90,4.9,4.9,73,0.00,,OVC045,0.00,VWS V14.01,2013-11-07 07:45:00,
2013-11-07 02:50:00,56.7,48.1,30.03,South,180,2.5,6.5,73,0.00,,OVC045,0.00,VWS V14.01,2013-11-07 07:50:00,
2013-11-07 02:55:00,56.7,48.1,30.03,ENE,68,5.6,6.3,73,0.00,,OVC045,0.00,VWS V14.01,2013-11-07 07:55:00,
2013-11-07 03:00:00,56.7,48.1,30.03,SSE,158,0.9,6.3,73,0.00,,OVC045,0.00,VWS V14.01,2013-11-07 08:00:00,
2013-11-07 03:05:00,56.7,47.8,30.03,East,90,3.6,4.9,72,0.00,,OVC045,0.00,VWS V14.01,2013-11-07 08:05:00,
2013-11-07 03:10:00,56.7,48.1,30.03,East,90,3.8,5.6,73,0.00,,OVC045,0.00,VWS V14.01,2013-11-07 08:10:00,
2013-11-07 03:15:00,56.5,47.9,30.03,East,90,4.3,6.7,73,0.00,,OVC045,0.00,VWS V14.01,2013-11-07 08:15:00,
2013-11-07 03:20:00,56.3,48.5,30.03,SE,135,2.7,4.9,75,0.00,,OVC045,0.00,VWS V14.01,2013-11-07 08:20:00,
2013-11-07 03:25:00,55.9,48.8,30.03,ESE,112,3.4,4.0,77,0.00,,OVC045,0.00,VWS V14.01,2013-11-07 08:25:00,
2013-11-07 03:30:00,55.8,49.7,30.03,East,90,3.6,4.9,80,0.00,,OVC045,0.00,VWS V14.01,2013-11-07 08:30:00,
2013-11-07 03:35:00,55.4,50.0,30.03,SE,135,2.7,6.3,82,0.00,,-RA,0.00,VWS V14.01,2013-11-07 08:35:00,
2013-11-07 03:40:00,55.4,50.7,30.03,SE,135,2.7,7.6,84,0.00,,-RA,0.00,VWS V14.01,2013-11-07 08:40:00,
2013-11-07 03:45:00,55.2,50.8,30.03,ESE,112,4.0,6.5,85,0.00,,-RA,0.00,VWS V14.01,2013-11-07 08:45:00,
2013-11-07 03:50:00,55.0,51.2,30.03,South,180,3.8,4.3,87,0.00,,-RA,0.00,VWS V14.01,2013-11-07 08:50:00,
2013-11-07 03:55:00,54.9,51.4,30.03,SSW,202,1.6,3.4,88,0.00,,-RA,0.00,VWS V14.01,2013-11-07 08:55:00,
2013-11-07 04:00:00,55.0,51.9,30.03,South,180,2.9,6.5,89,0.00,,-RA,0.00,VWS V14.01,2013-11-07 09:00:00,
2013-11-07 04:05:00,55.0,52.2,30.03,SE,135,2.5,4.7,90,0.00,,-RA,0.00,VWS V14.01,2013-11-07 09:05:00,
2013-11-07 04:10:00,55.0,52.2,30.03,SW,225,4.7,5.4,90,0.00,,-RA,0.00,VWS V14.01,2013-11-07 09:10:00,
2013-11-07 04:15:00,55.0,52.2,30.03,SE,135,4.7,5.6,90,0.00,,-RA,0.00,VWS V14.01,2013-11-07 09:15:00,
2013-11-07 04:20:00,55.0,52.2,30.03,South,180,2.2,6.0,90,0.00,,-RA,0.00,VWS V14.01,2013-11-07 09:20:00,
2013-11-07 04:25:00,55.0,52.2,30.03,SSW,202,1.3,5.4,90,0.00,,-RA,0.00,VWS V14.01,2013-11-07 09:25:00,
2013-11-07 04:30:00,54.9,51.7,30.03,South,180,0.0,3.1,89,0.00,,-RA,0.00,VWS V14.01,2013-11-07 09:30:00,
2013-11-07 04:35:00,55.0,51.9,30.03,ESE,112,0.0,5.6,89,0.00,,-RA,0.00,VWS V14.01,2013-11-07 09:35:00,
2013-11-07 04:40:00,54.9,51.7,30.03,NE,45,2.0,2.5,89,0.00,,-RA,0.00,VWS V14.01,2013-11-07 09:40:00,
2013-11-07 04:45:00,54.5,51.3,30.03,NE,45,0.0,2.2,89,0.00,,-RA,0.00,VWS V14.01,2013-11-07 09:45:00,
2013-11-07 04:50:00,54.5,51.0,30.03,East,90,1.1,1.1,88,0.00,,-RA,0.00,VWS V14.01,2013-11-07 09:50:00,
2013-11-07 04:55:00,54.5,51.0,30.03,East,90,0.0,2.2,88,0.00,,-RA,0.00,VWS V14.01,2013-11-07 09:55:00,
2013-11-07 05:00:00,54.7,51.8,30.03,ENE,68,0.0,2.7,90,0.00,,-RA,0.00,VWS V14.01,2013-11-07 10:00:00,
2013-11-07 05:05:00,54.5,51.6,30.03,NNE,22,0.0,1.6,90,0.00,,-RA,0.00,VWS V14.01,2013-11-07 10:05:00,
2013-11-07 05:10:00,54.3,51.5,30.00,NE,45,0.0,2.7,90,0.00,,-RA,0.00,VWS V14.01,2013-11-07 10:10:00,
2013-11-07 05:15:00,54.3,51.8,30.00,North,0,0.0,4.3,91,0.00,,-RA,0.00,VWS V14.01,2013-11-07 10:15:00,
2013-11-07 05:20:00,54.3,51.8,30.00,North,0,0.0,3.6,91,0.00,,-RA,0.00,VWS V14.01,2013-11-07 10:20:00,
2013-11-07 05:25:00,54.3,51.8,30.00,NNW,338,0.0,2.0,91,0.00,,-RA,0.00,VWS V14.01,2013-11-07 10:25:00,
2013-11-07 05:30:00,54.3,51.8,30.00,NW,315,0.0,2.2,91,0.00,,-RA,0.00,VWS V14.01,2013-11-07 10:30:00,
2013-11-07 05:35:00,54.3,51.8,30.00,NE,45,0.0,2.0,91,0.00,,-RA,0.00,VWS V14.01,2013-11-07 10:35:00,
2013-11-07 05:40:00,54.5,52.2,30.00,ESE,112,0.0,4.9,92,0.00,,-RA,0.00,VWS V14.01,2013-11-07 10:40:00,
2013-11-07 05:45:00,54.9,52.9,30.00,ESE,112,5.8,6.9,93,0.00,,-RA,0.00,VWS V14.01,2013-11-07 10:45:00,
2013-11-07 05:50:00,55.0,53.1,30.00,ESE,112,1.3,3.8,93,0.00,,-RA,0.00,VWS V14.01,2013-11-07 10:50:00,
2013-11-07 05:55:00,55.0,53.1,30.00,East,90,2.5,5.4,93,0.00,,-RA,0.00,VWS V14.01,2013-11-07 10:55:00,
2013-11-07 06:00:00,55.2,53.2,30.00,ESE,112,2.9,5.6,93,0.00,,-RA,0.00,VWS V14.01,2013-11-07 11:00:00,
2013-11-07 06:05:00,55.0,52.8,30.00,NE,45,0.0,0.0,92,0.00,,-RA,0.00,VWS V14.01,2013-11-07 11:05:00,
2013-11-07 06:10:00,55.0,52.8,30.00,ENE,68,0.0,0.0,92,0.00,,-RA,0.00,VWS V14.01,2013-11-07 11:10:00,
2013-11-07 06:15:00,54.9,52.6,30.00,North,0,0.0,0.0,92,0.00,,-RA,0.00,VWS V14.01,2013-11-07 11:15:00,
2013-11-07 06:20:00,54.7,52.1,30.00,ENE,68,0.0,0.0,91,0.00,,-RA,0.00,VWS V14.01,2013-11-07 11:20:00,
2013-11-07 06:25:00,54.7,52.1,30.00,NE,45,0.0,0.0,91,0.00,,-RA,0.00,VWS V14.01,2013-11-07 11:25:00,
2013-11-07 06:30:00,54.7,52.1,30.00,ENE,68,0.0,0.0,91,0.00,,-RA,0.00,VWS V14.01,2013-11-07 11:30:00,
2013-11-07 06:34:00,54.7,52.1,30.00,East,90,0.0,0.0,91,0.00,,OVC006,0.00,VWS V14.01,2013-11-07 11:34:00,
2013-11-07 06:39:00,54.9,52.6,30.00,SE,135,0.0,0.0,92,0.00,,OVC006,0.00,VWS V14.01,2013-11-07 11:39:00,
2013-11-07 06:44:00,55.0,53.1,30.00,SE,135,0.0,0.0,93,0.00,,OVC006,0.00,VWS V14.01,2013-11-07 11:44:00,
2013-11-07 06:49:00,55.2,53.5,30.00,East,90,0.0,0.0,94,0.00,,OVC006,0.00,VWS V14.01,2013-11-07 11:49:00,
2013-11-07 06:54:00,55.0,53.1,30.00,ENE,68,0.0,0.0,93,0.00,,OVC006,0.00,VWS V14.01,2013-11-07 11:54:00,
2013-11-07 06:59:00,55.0,53.1,30.03,NNW,338,0.0,0.0,93,0.00,,OVC006,0.00,VWS V14.01,2013-11-07 11:59:00,
2013-11-07 07:04:00,55.0,53.1,30.03,NW,315,2.2,5.4,93,0.00,,OVC006,0.00,VWS V14.01,2013-11-07 12:04:00,
2013-11-07 07:09:00,54.1,51.3,30.03,NNW,338,0.9,5.4,90,0.00,,OVC006,0.00,VWS V14.01,2013-11-07 12:09:00,
2013-11-07 07:14:00,53.1,49.0,30.03,NW,315,6.3,6.3,86,0.00,,OVC006,0.00,VWS V14.01,2013-11-07 12:14:00,
2013-11-07 07:19:00,52.2,47.8,30.03,North,0,0.0,2.0,85,0.00,,OVC006,0.00,VWS V14.01,2013-11-07 12:19:00,
2013-11-07 07:24:00,51.8,47.1,30.03,NNW,338,0.0,3.1,84,0.00,,OVC006,0.00,VWS V14.01,2013-11-07 12:24:00,
2013-11-07 07:29:00,51.3,46.9,30.03,NNW,338,0.0,1.3,85,0.00,,OVC006,0.00,VWS V14.01,2013-11-07 12:29:00,
2013-11-07 07:34:00,50.9,46.6,30.03,North,0,0.0,3.4,85,0.00,,-RA,0.00,VWS V14.01,2013-11-07 12:34:00,
2013-11-07 07:39:00,50.5,46.5,30.03,WNW,292,0.0,0.0,86,0.00,,-RA,0.00,VWS V14.01,2013-11-07 12:39:00,
2013-11-07 07:44:00,50.2,46.2,30.03,West,270,2.2,2.2,86,0.00,,-RA,0.00,VWS V14.01,2013-11-07 12:44:00,
2013-11-07 07:49:00,49.8,46.1,30.03,West,270,3.4,3.4,87,0.00,,-RA,0.00,VWS V14.01,2013-11-07 12:49:00,
2013-11-07 07:54:00,49.6,46.2,30.03,NW,315,0.0,2.9,88,0.00,,-RA,0.00,VWS V14.01,2013-11-07 12:54:00,
2013-11-07 07:59:00,49.1,45.4,30.06,South,180,0.9,3.6,87,0.00,,-RA,0.00,VWS V14.01,2013-11-07 12:59:00,
2013-11-07 08:04:00,48.9,45.5,30.06,NW,315,0.0,2.2,88,0.00,,RA,0.00,VWS V14.01,2013-11-07 13:04:00,
2013-11-07 08:09:00,48.9,45.5,30.06,NNE,22,0.0,4.9,88,0.00,,RA,0.00,VWS V14.01,2013-11-07 13:09:00,
2013-11-07 08:14:00,48.7,45.3,30.09,West,270,0.0,2.7,88,0.00,,RA,0.00,VWS V14.01,2013-11-07 13:14:00,
2013-11-07 08:19:00,48.6,45.2,30.09,NW,315,0.0,0.0,88,0.00,,RA,0.00,VWS V14.01,2013-11-07 13:19:00,
2013-11-07 08:24:00,48.6,45.2,30.09,NW,315,0.0,0.0,88,0.00,,RA,0.00,VWS V14.01,2013-11-07 13:24:00,
2013-11-07 08:29:00,48.2,44.8,30.09,NW,315,0.0,2.2,88,0.00,,RA,0.00,VWS V14.01,2013-11-07 13:29:00,
2013-11-07 08:34:00,48.0,44.6,30.09,North,0,0.0,2.2,88,0.00,,-RA,0.00,VWS V14.01,2013-11-07 13:34:00,
2013-11-07 08:39:00,47.8,44.2,30.09,NNW,338,0.0,0.0,87,0.00,,-RA,0.00,VWS V14.01,2013-11-07 13:39:00,
2013-11-07 08:44:00,47.7,44.0,30.09,WNW,292,0.0,0.9,87,0.00,,-RA,0.00,VWS V14.01,2013-11-07 13:44:00,
2013-11-07 08:49:00,47.5,43.2,30.09,North,0,0.0,3.6,85,0.00,,-RA,0.00,VWS V14.01,2013-11-07 13:49:00,
2013-11-07 08:54:00,47.3,43.0,30.09,WSW,248,0.0,0.0,85,0.00,,-RA,0.00,VWS V14.01,2013-11-07 13:54:00,
2013-11-07 08:59:00,47.3,43.0,30.09,WNW,292,0.0,3.4,85,0.00,,-RA,0.00,VWS V14.01,2013-11-07 13:59:00,
2013-11-07 09:04:00,47.1,42.8,30.09,NW,315,0.0,0.0,85,0.00,,-RA,0.00,VWS V14.01,2013-11-07 14:04:00,
2013-11-07 09:09:00,47.1,42.8,30.09,SW,225,0.0,0.0,85,0.00,,-RA,0.00,VWS V14.01,2013-11-07 14:09:00,
2013-11-07 09:14:00,46.8,42.5,30.12,NW,315,0.0,0.0,85,0.00,,-RA,0.00,VWS V14.01,2013-11-07 14:14:00,
2013-11-07 09:19:00,46.8,42.2,30.12,West,270,0.0,0.0,84,0.00,,-RA,0.00,VWS V14.01,2013-11-07 14:19:00,
2013-11-07 09:24:00,46.8,42.5,30.12,NE,45,0.0,2.2,85,0.00,,-RA,0.00,VWS V14.01,2013-11-07 14:24:00,
2013-11-07 09:29:00,46.6,42.3,30.12,West,270,0.0,1.1,85,0.00,,-RA,0.00,VWS V14.01,2013-11-07 14:29:00,
2013-11-07 09:34:00,46.6,42.0,30.12,NNE,22,0.0,3.4,84,0.00,,-RA,0.00,VWS V14.01,2013-11-07 14:34:00,
2013-11-07 09:38:00,46.6,42.3,30.12,NW,315,0.0,0.0,85,0.00,,-RA,0.00,VWS V14.01,2013-11-07 14:38:00,
2013-11-07 09:43:00,46.6,42.3,30.12,North,0,0.0,0.0,85,0.00,,-RA,0.00,VWS V14.01,2013-11-07 14:43:00,
2013-11-07 09:48:00,46.2,42.0,30.12,West,270,0.0,3.6,85,0.00,,-RA,0.00,VWS V14.01,2013-11-07 14:48:00,
2013-11-07 09:53:00,46.2,42.0,30.12,SW,225,0.0,2.7,85,0.00,,-RA,0.00,VWS V14.01,2013-11-07 14:53:00,
2013-11-07 09:58:00,46.2,42.3,30.12,North,0,0.0,1.3,86,0.00,,-RA,0.00,VWS V14.01,2013-11-07 14:58:00,
2013-11-07 10:03:00,46.2,42.6,30.12,NNW,338,0.0,0.9,87,0.00,,-RA,0.00,VWS V14.01,2013-11-07 15:03:00,
2013-11-07 10:08:00,46.2,42.3,30.12,NNW,338,0.0,4.0,86,0.00,,-RA,0.00,VWS V14.01,2013-11-07 15:08:00,
2013-11-07 10:13:00,46.0,41.8,30.12,NW,315,0.0,3.6,85,0.00,,-RA,0.00,VWS V14.01,2013-11-07 15:13:00,
2013-11-07 10:18:00,45.7,41.7,30.12,NNW,338,0.0,1.6,86,0.00,,-RA,0.00,VWS V14.01,2013-11-07 15:18:00,
2013-11-07 10:23:00,45.3,41.4,30.12,North,0,0.0,3.6,86,0.00,,-RA,0.00,VWS V14.01,2013-11-07 15:23:00,
2013-11-07 10:28:00,45.0,40.7,30.12,SW,225,0.0,3.1,85,0.00,,-RA,0.00,VWS V14.01,2013-11-07 15:28:00,
2013-11-07 10:33:00,44.8,40.5,30.12,NNW,338,0.0,1.1,85,0.00,,-RA,0.00,VWS V14.01,2013-11-07 15:33:00,
2013-11-07 10:38:00,45.0,41.0,30.12,WSW,248,0.0,0.0,86,0.00,,-RA,0.00,VWS V14.01,2013-11-07 15:38:00,
2013-11-07 10:43:00,45.1,41.2,30.18,West,270,0.0,0.0,86,0.00,,-RA,0.00,VWS V14.01,2013-11-07 15:43:00,
2013-11-07 10:48:00,45.1,41.2,30.18,ESE,112,0.0,0.0,86,0.00,,-RA,0.00,VWS V14.01,2013-11-07 15:48:00,
2013-11-07 10:53:00,45.0,41.0,30.18,NW,315,0.0,0.9,86,0.00,,-RA,0.00,VWS V14.01,2013-11-07 15:53:00,
2013-11-07 10:58:00,45.3,41.4,30.12,NW,315,0.0,1.1,86,0.00,,-RA,0.00,VWS V14.01,2013-11-07 15:58:00,
2013-11-07 11:03:00,45.9,41.3,30.12,NNW,338,0.0,2.2,84,0.00,,-RA,0.00,VWS V14.01,2013-11-07 16:03:00,
2013-11-07 11:08:00,47.3,42.7,30.12,West,270,0.0,0.9,84,0.00,,-RA,0.00,VWS V14.01,2013-11-07 16:08:00,
2013-11-07 11:13:00,46.0,38.9,30.15,North,0,0.0,5.8,76,0.00,,-RA,0.00,VWS V14.01,2013-11-07 16:13:00,
2013-11-07 11:18:00,45.9,38.7,30.15,North,0,0.0,4.3,76,0.00,,-RA,0.00,VWS V14.01,2013-11-07 16:18:00,
2013-11-07 11:23:00,45.5,38.4,30.15,NNW,338,2.5,10.3,76,0.00,,-RA,0.00,VWS V14.01,2013-11-07 16:23:00,
2013-11-07 11:28:00,45.3,38.2,30.15,NW,315,4.0,12.5,76,0.00,,-RA,0.00,VWS V14.01,2013-11-07 16:28:00,
2013-11-07 11:33:00,44.6,37.5,30.15,West,270,7.4,8.1,76,0.00,,OVC030,0.00,VWS V14.01,2013-11-07 16:33:00,
2013-11-07 11:38:00,43.9,37.2,30.15,NNW,338,8.1,8.1,77,0.00,,OVC030,0.00,VWS V14.01,2013-11-07 16:38:00,
2013-11-07 11:43:00,43.3,36.3,30.15,NNE,22,2.9,8.1,76,0.00,,OVC030,0.00,VWS V14.01,2013-11-07 16:43:00,
2013-11-07 11:48:00,43.0,36.6,30.15,NW,315,3.8,5.4,78,0.00,,OVC030,0.00,VWS V14.01,2013-11-07 16:48:00,
2013-11-07 11:53:00,42.8,36.4,30.15,SSW,202,0.0,2.2,78,0.00,,OVC030,0.00,VWS V14.01,2013-11-07 16:53:00,
2013-11-07 11:58:00,43.0,36.9,30.15,NW,315,0.0,2.9,79,0.00,,OVC030,0.00,VWS V14.01,2013-11-07 16:58:00,
2013-11-07 12:03:00,43.3,37.6,30.15,WNW,292,0.0,1.1,80,0.00,,-RA,0.00,VWS V14.01,2013-11-07 17:03:00,
2013-11-07 12:08:00,43.0,36.9,30.15,West,270,0.0,1.6,79,0.00,,-RA,0.00,VWS V14.01,2013-11-07 17:08:00,
2013-11-07 12:13:00,43.0,36.6,30.15,West,270,0.0,2.7,78,0.00,,-RA,0.00,VWS V14.01,2013-11-07 17:13:00,
2013-11-07 12:18:00,43.0,36.6,30.15,NNW,338,0.0,0.0,78,0.00,,-RA,0.00,VWS V14.01,2013-11-07 17:18:00,
2013-11-07 12:23:00,43.0,36.3,30.15,West,270,0.0,0.0,77,0.00,,-RA,0.00,VWS V14.01,2013-11-07 17:23:00,
2013-11-07 12:28:00,43.0,36.3,30.15,SE,135,0.0,0.0,77,0.00,,-RA,0.00,VWS V14.01,2013-11-07 17:28:00,
2013-11-07 12:33:00,43.0,36.3,30.15,NE,45,0.0,0.0,77,0.00,,-RA,0.00,VWS V14.01,2013-11-07 17:33:00,
2013-11-07 12:38:00,42.8,35.8,30.15,WNW,292,0.0,2.9,76,0.00,,-RA,0.00,VWS V14.01,2013-11-07 17:38:00,
2013-11-07 12:43:00,42.8,36.1,30.15,SSW,202,0.0,2.7,77,0.00,,-RA,0.00,VWS V14.01,2013-11-07 17:43:00,
2013-11-07 12:48:00,43.0,36.3,30.15,NNW,338,0.0,0.0,77,0.00,,-RA,0.00,VWS V14.01,2013-11-07 17:48:00,
2013-11-07 12:53:00,43.2,36.5,30.15,NNW,338,0.0,1.1,77,0.00,,-RA,0.00,VWS V14.01,2013-11-07 17:53:00,
2013-11-07 12:58:00,43.5,36.8,30.15,NNW,338,0.0,0.0,77,0.00,,-RA,0.00,VWS V14.01,2013-11-07 17:58:00,
2013-11-07 13:03:00,43.5,36.1,30.15,NNE,22,0.0,2.9,75,0.00,,OVC027,0.00,VWS V14.01,2013-11-07 18:03:00,
2013-11-07 13:08:00,43.7,36.0,30.15,North,0,0.0,0.0,74,0.00,,OVC027,0.00,VWS V14.01,2013-11-07 18:08:00,
2013-11-07 13:13:00,43.7,35.3,30.15,West,270,0.0,1.6,72,0.00,,OVC027,0.00,VWS V14.01,2013-11-07 18:13:00,
2013-11-07 13:18:00,44.6,36.2,30.15,West,270,0.0,1.6,72,0.00,,OVC027,0.00,VWS V14.01,2013-11-07 18:18:00,
2013-11-07 13:23:00,45.3,36.8,30.15,NW,315,2.2,2.2,72,0.00,,OVC027,0.00,VWS V14.01,2013-11-07 18:23:00,
2013-11-07 13:28:00,45.1,34.5,30.12,NNW,338,0.0,2.2,66,0.00,,OVC027,0.00,VWS V14.01,2013-11-07 18:28:00,
2013-11-07 13:33:00,44.6,33.2,30.12,NNW,338,0.0,0.0,64,0.00,,OVC021,0.00,VWS V14.01,2013-11-07 18:33:00,
2013-11-07 13:38:00,44.4,32.6,30.12,WSW,248,0.0,2.2,63,0.00,,OVC021,0.00,VWS V14.01,2013-11-07 18:38:00,
2013-11-07 13:43:00,44.2,32.5,30.15,NW,315,0.0,0.0,63,0.00,,OVC021,0.00,VWS V14.01,2013-11-07 18:43:00,
2013-11-07 13:48:00,43.9,31.7,30.15,NNW,338,0.0,0.0,62,0.00,,OVC021,0.00,VWS V14.01,2013-11-07 18:48:00,
2013-11-07 13:53:00,44.1,32.3,30.15,NNW,338,1.6,1.6,63,0.00,,OVC021,0.00,VWS V14.01,2013-11-07 18:53:00,
2013-11-07 13:57:00,43.9,30.9,30.15,North,0,0.0,4.0,60,0.00,,OVC021,0.00,VWS V14.01,2013-11-07 18:57:00,
2013-11-07 14:02:00,44.1,31.5,30.15,NNW,338,0.0,1.1,61,0.00,,OVC021,0.00,VWS V14.01,2013-11-07 19:02:00,
2013-11-07 14:07:00,44.2,30.8,30.15,NW,315,1.1,7.8,59,0.00,,OVC021,0.00,VWS V14.01,2013-11-07 19:07:00,
2013-11-07 14:12:00,47.1,33.5,30.15,West,270,2.9,5.4,59,0.00,,OVC021,0.00,VWS V14.01,2013-11-07 19:12:00,
2013-11-07 14:17:00,48.6,33.6,30.15,NNW,338,4.3,5.8,56,0.00,,OVC021,0.00,VWS V14.01,2013-11-07 19:17:00,
2013-11-07 14:22:00,48.9,32.1,30.15,NW,315,4.9,5.8,52,0.00,,OVC021,0.00,VWS V14.01,2013-11-07 19:22:00,
2013-11-07 14:27:00,48.6,31.8,30.15,NW,315,2.7,4.0,52,0.00,,OVC021,0.00,VWS V14.01,2013-11-07 19:27:00,
2013-11-07 14:32:00,47.7,30.9,30.15,NW,315,2.7,2.7,52,0.00,,OVC028,0.00,VWS V14.01,2013-11-07 19:32:00,
2013-11-07 14:37:00,47.7,30.9,30.15,NNW,338,4.3,4.3,52,0.00,,OVC028,0.00,VWS V14.01,2013-11-07 19:37:00,
2013-11-07 14:42:00,47.3,30.1,30.15,WNW,292,1.1,4.3,51,0.00,,OVC028,0.00,VWS V14.01,2013-11-07 19:42:00,
2013-11-07 14:47:00,47.1,30.4,30.15,West,270,2.7,2.7,52,0.00,,OVC028,0.00,VWS V14.01,2013-11-07 19:47:00,
2013-11-07 14:52:00,46.9,30.2,30.15,NNW,338,1.6,3.8,52,0.00,,OVC028,0.00,VWS V14.01,2013-11-07 19:52:00,
2013-11-07 14:57:00,46.9,29.8,30.15,WNW,292,4.3,4.3,51,0.00,,OVC028,0.00,VWS V14.01,2013-11-07 19:57:00,
2013-11-07 15:02:00,47.3,31.0,30.15,NNW,338,1.1,1.3,53,0.00,,OVC028,0.00,VWS V14.01,2013-11-07 20:02:00,
2013-11-07 15:07:00,47.1,29.9,30.15,SW,225,1.1,2.9,51,0.00,,OVC028,0.00,VWS V14.01,2013-11-07 20:07:00,
2013-11-07 15:12:00,47.1,30.4,30.15,NW,315,2.2,2.7,52,0.00,,OVC028,0.00,VWS V14.01,2013-11-07 20:12:00,
2013-11-07 15:17:00,46.8,29.6,30.15,NW,315,1.1,4.7,51,0.00,,OVC028,0.00,VWS V14.01,2013-11-07 20:17:00,
2013-11-07 15:22:00,47.1,30.4,30.15,NW,315,1.6,2.7,52,0.00,,OVC028,0.00,VWS V14.01,2013-11-07 20:22:00,
2013-11-07 15:27:00,47.1,30.4,30.12,NW,315,3.4,3.4,52,0.00,,OVC028,0.00,VWS V14.01,2013-11-07 20:27:00,
2013-11-07 15:32:00,46.9,30.2,30.12,NNW,338,2.0,4.3,52,0.00,,OVC031,0.00,VWS V14.01,2013-11-07 20:32:00,
2013-11-07 15:37:00,47.3,30.6,30.12,WNW,292,3.1,5.6,52,0.00,,OVC031,0.00,VWS V14.01,2013-11-07 20:37:00,
2013-11-07 15:42:00,46.9,29.8,30.15,North,0,4.0,5.4,51,0.00,,OVC031,0.00,VWS V14.01,2013-11-07 20:42:00,
2013-11-07 15:47:00,47.1,29.9,30.15,NW,315,4.0,4.7,51,0.00,,OVC031,0.00,VWS V14.01,2013-11-07 20:47:00,
2013-11-07 15:52:00,46.4,29.3,30.15,WNW,292,4.3,4.3,51,0.00,,OVC031,0.00,VWS V14.01,2013-11-07 20:52:00,
2013-11-07 15:57:00,46.2,29.6,30.15,NE,45,2.9,2.9,52,0.00,,OVC031,0.00,VWS V14.01,2013-11-07 20:57:00,
2013-11-07 16:02:00,45.7,29.5,30.15,NE,45,0.0,2.5,53,0.00,,OVC031,0.00,VWS V14.01,2013-11-07 21:02:00,
2013-11-07 16:07:00,45.3,29.7,30.15,WSW,248,1.1,1.1,54,0.00,,OVC031,0.00,VWS V14.01,2013-11-07 21:07:00,
2013-11-07 16:12:00,45.1,29.5,30.15,NW,315,0.0,2.9,54,0.00,,OVC031,0.00,VWS V14.01,2013-11-07 21:12:00,
2013-11-07 16:17:00,45.0,29.8,30.15,North,0,2.7,2.9,55,0.00,,OVC031,0.00,VWS V14.01,2013-11-07 21:17:00,
2013-11-07 16:22:00,44.4,29.7,30.15,South,180,0.0,1.1,56,0.00,,OVC031,0.00,VWS V14.01,2013-11-07 21:22:00,
2013-11-07 16:27:00,44.4,29.7,30.15,NNW,338,0.0,0.0,56,0.00,,OVC031,0.00,VWS V14.01,2013-11-07 21:27:00,
2013-11-07 16:32:00,44.2,29.5,30.15,North,0,2.5,3.6,56,0.00,,OVC036,0.00,VWS V14.01,2013-11-07 21:32:00,
2013-11-07 16:37:00,46.9,31.6,30.15,West,270,2.9,2.9,55,0.00,,OVC036,0.00,VWS V14.01,2013-11-07 21:37:00,
2013-11-07 16:42:00,46.8,31.0,30.12,NE,45,0.0,0.9,54,0.00,,OVC036,0.00,VWS V14.01,2013-11-07 21:42:00,
2013-11-07 16:47:00,45.1,30.0,30.12,NNW,338,1.3,2.0,55,0.00,,OVC036,0.00,VWS V14.01,2013-11-07 21:47:00,
2013-11-07 16:52:00,44.2,29.5,30.12,SW,225,1.3,2.7,56,0.00,,OVC036,0.00,VWS V14.01,2013-11-07 21:52:00,
2013-11-07 16:57:00,43.7,29.5,30.15,SW,225,0.9,0.9,57,0.00,,OVC036,0.00,VWS V14.01,2013-11-07 21:57:00,
2013-11-07 17:02:00,43.5,29.3,30.15,SW,225,0.0,0.0,57,0.00,,OVC036,0.00,VWS V14.01,2013-11-07 22:02:00,
2013-11-07 17:07:00,43.0,28.8,30.15,WNW,292,0.0,2.2,57,0.00,,OVC036,0.00,VWS V14.01,2013-11-07 22:07:00,
2013-11-07 17:12:00,42.6,28.9,30.15,NW,315,2.0,2.0,58,0.00,,OVC036,0.00,VWS V14.01,2013-11-07 22:12:00,
2013-11-07 17:17:00,42.3,28.1,30.15,West,270,1.1,1.1,57,0.00,,OVC036,0.00,VWS V14.01,2013-11-07 22:17:00,
2013-11-07 17:22:00,41.7,28.0,30.15,NW,315,0.0,1.6,58,0.00,,OVC036,0.00,VWS V14.01,2013-11-07 22:22:00,
2013-11-07 17:27:00,40.8,28.0,30.15,NE,45,0.0,0.0,60,0.00,,OVC036,0.00,VWS V14.01,2013-11-07 22:27:00,
2013-11-07 17:32:00,39.9,28.0,30.15,NNW,338,0.0,0.0,62,0.00,,OVC037,0.00,VWS V14.01,2013-11-07 22:32:00,
2013-11-07 17:37:00,39.2,27.7,30.15,ENE,68,0.0,0.0,63,0.00,,OVC037,0.00,VWS V14.01,2013-11-07 22:37:00,
2013-11-07 17:42:00,38.5,27.8,30.15,East,90,0.0,1.1,65,0.00,,OVC037,0.00,VWS V14.01,2013-11-07 22:42:00,
2013-11-07 17:47:00,38.1,27.8,30.15,NNW,338,0.0,1.1,66,0.00,,OVC037,0.00,VWS V14.01,2013-11-07 22:47:00,
2013-11-07 17:52:00,37.4,28.2,30.15,ENE,68,0.9,0.9,69,0.00,,OVC037,0.00,VWS V14.01,2013-11-07 22:52:00,
2013-11-07 17:57:00,36.9,28.0,30.18,WSW,248,0.0,0.0,70,0.00,,OVC037,0.00,VWS V14.01,2013-11-07 22:57:00,
2013-11-07 18:02:00,36.5,28.4,30.18,ESE,112,2.9,2.9,72,0.00,,OVC040,0.00,VWS V14.01,2013-11-07 23:02:00,
2013-11-07 18:07:00,36.3,28.2,30.18,NNW,338,0.0,0.0,72,0.00,,OVC040,0.00,VWS V14.01,2013-11-07 23:07:00,
2013-11-07 18:12:00,35.8,28.3,30.18,West,270,0.0,0.0,74,0.00,,OVC040,0.00,VWS V14.01,2013-11-07 23:12:00,
2013-11-07 18:17:00,35.4,28.0,30.18,WNW,292,0.0,0.0,74,0.00,,OVC040,0.00,VWS V14.01,2013-11-07 23:17:00,
2013-11-07 18:22:00,35.4,28.3,30.18,West,270,0.0,0.0,75,0.00,,OVC040,0.00,VWS V14.01,2013-11-07 23:22:00,
2013-11-07 18:27:00,35.4,28.6,30.18,West,270,0.0,0.0,76,0.00,,OVC040,0.00,VWS V14.01,2013-11-07 23:27:00,
2013-11-07 18:32:00,36.0,28.8,30.18,NNW,338,0.0,0.0,75,0.00,,OVC042,0.00,VWS V14.01,2013-11-07 23:32:00,
2013-11-07 18:37:00,36.5,29.3,30.18,WSW,248,1.3,2.0,75,0.00,,OVC042,0.00,VWS V14.01,2013-11-07 23:37:00,
2013-11-07 18:42:00,36.7,29.2,30.21,WNW,292,2.2,2.2,74,0.00,,OVC042,0.00,VWS V14.01,2013-11-07 23:42:00,
2013-11-07 18:47:00,36.9,29.0,30.21,West,270,0.0,0.0,73,0.00,,OVC042,0.00,VWS V14.01,2013-11-07 23:47:00,
2013-11-07 18:52:00,36.7,28.9,30.21,SSW,202,0.0,2.2,73,0.00,,OVC042,0.00,VWS V14.01,2013-11-07 23:52:00,
2013-11-07 18:57:00,36.3,28.2,30.18,West,270,3.4,3.8,72,0.00,,OVC042,0.00,VWS V14.01,2013-11-07 23:57:00,
2013-11-07 19:02:00,36.9,28.4,30.18,WNW,292,3.8,3.8,71,0.00,,OVC042,0.00,VWS V14.01,2013-11-08 00:02:00,
2013-11-07 19:07:00,37.6,28.0,30.18,NW,315,3.8,3.8,68,0.00,,OVC042,0.00,VWS V14.01,2013-11-08 00:07:00,
2013-11-07 19:12:00,37.9,27.6,30.18,NNW,338,2.7,3.1,66,0.00,,OVC042,0.00,VWS V14.01,2013-11-08 00:12:00,
2013-11-07 19:17:00,38.1,27.4,30.18,South,180,2.9,2.9,65,0.00,,OVC042,0.00,VWS V14.01,2013-11-08 00:17:00,
2013-11-07 19:22:00,38.1,26.6,30.18,NE,45,0.0,3.8,63,0.00,,OVC042,0.00,VWS V14.01,2013-11-08 00:22:00,
2013-11-07 19:27:00,38.5,25.8,30.21,SSE,158,1.3,3.8,60,0.00,,OVC042,0.00,VWS V14.01,2013-11-08 00:27:00,
2013-11-07 19:32:00,38.5,25.4,30.21,West,270,1.1,2.0,59,0.00,,BKN038,0.00,VWS V14.01,2013-11-08 00:32:00,
2013-11-07 19:37:00,38.1,25.5,30.21,WSW,248,2.0,3.1,60,0.00,,BKN038,0.00,VWS V14.01,2013-11-08 00:37:00,
2013-11-07 19:42:00,37.8,25.1,30.21,SSE,158,0.0,1.3,60,0.00,,BKN038,0.00,VWS V14.01,2013-11-08 00:42:00,
2013-11-07 19:47:00,37.4,24.8,30.21,WNW,292,0.0,0.9,60,0.00,,BKN038,0.00,VWS V14.01,2013-11-08 00:47:00,
2013-11-07 19:52:00,37.2,25.0,30.21,NW,315,1.6,2.5,61,0.00,,BKN038,0.00,VWS V14.01,2013-11-08 00:52:00,
2013-11-07 19:57:00,36.7,25.3,30.21,WNW,292,1.3,3.1,63,0.00,,BKN038,0.00,VWS V14.01,2013-11-08 00:57:00,
2013-11-07 20:02:00,36.3,26.1,30.21,NW,315,0.0,2.0,66,0.00,,BKN038,0.00,VWS V14.01,2013-11-08 01:02:00,
2013-11-07 20:07:00,36.3,26.4,30.21,NW,315,2.0,2.0,67,0.00,,BKN038,0.00,VWS V14.01,2013-11-08 01:07:00,
2013-11-07 20:12:00,36.1,27.0,30.21,SW,225,0.0,0.0,69,0.00,,BKN038,0.00,VWS V14.01,2013-11-08 01:12:00,
2013-11-07 20:17:00,36.1,27.3,30.21,NW,315,0.0,0.0,70,0.00,,BKN038,0.00,VWS V14.01,2013-11-08 01:17:00,
2013-11-07 20:22:00,36.0,27.8,30.21,West,270,0.0,0.0,72,0.00,,BKN038,0.00,VWS V14.01,2013-11-08 01:22:00,
2013-11-07 20:27:00,36.0,27.5,30.21,South,180,0.0,0.0,71,0.00,,BKN038,0.00,VWS V14.01,2013-11-08 01:27:00,
2013-11-07 20:32:00,36.1,28.0,30.21,South,180,0.0,0.0,72,0.00,,FEW034,0.00,VWS V14.01,2013-11-08 01:32:00,
2013-11-07 20:37:00,36.1,28.3,30.21,SW,225,0.9,0.9,73,0.00,,FEW034,0.00,VWS V14.01,2013-11-08 01:37:00,
2013-11-07 20:42:00,36.1,28.3,30.21,SE,135,0.0,0.0,73,0.00,,FEW034,0.00,VWS V14.01,2013-11-08 01:42:00,
2013-11-07 20:47:00,36.0,27.8,30.21,South,180,0.0,0.0,72,0.00,,FEW034,0.00,VWS V14.01,2013-11-08 01:47:00,
2013-11-07 20:52:00,35.8,27.6,30.21,NE,45,0.0,0.0,72,0.00,,FEW034,0.00,VWS V14.01,2013-11-08 01:52:00,
2013-11-07 20:57:00,35.8,27.6,30.21,West,270,0.0,0.0,72,0.00,,FEW034,0.00,VWS V14.01,2013-11-08 01:57:00,
2013-11-07 21:02:00,35.2,27.8,30.21,West,270,0.0,0.0,74,0.00,,FEW034,0.00,VWS V14.01,2013-11-08 02:02:00,
2013-11-07 21:07:00,34.9,28.1,30.21,NNW,338,0.0,0.0,76,0.00,,FEW034,0.00,VWS V14.01,2013-11-08 02:07:00,
2013-11-07 21:12:00,34.3,27.2,30.21,WNW,292,0.0,0.0,75,0.00,,FEW034,0.00,VWS V14.01,2013-11-08 02:12:00,
2013-11-07 21:17:00,33.8,27.0,30.21,WNW,292,0.0,0.0,76,0.00,,FEW034,0.00,VWS V14.01,2013-11-08 02:17:00,
2013-11-07 21:22:00,33.1,26.4,30.21,WNW,292,0.0,0.0,76,0.00,,FEW034,0.00,VWS V14.01,2013-11-08 02:22:00,
2013-11-07 21:27:00,33.1,26.7,30.21,WNW,292,0.0,0.0,77,0.00,,FEW034,0.00,VWS V14.01,2013-11-08 02:27:00,
2013-11-07 21:32:00,32.7,26.3,30.21,WNW,292,0.0,0.0,77,0.00,,OVC040,0.00,VWS V14.01,2013-11-08 02:32:00,
2013-11-07 21:37:00,32.2,25.8,30.21,WNW,292,0.0,0.0,77,0.00,,OVC040,0.00,VWS V14.01,2013-11-08 02:37:00,
2013-11-07 21:42:00,31.6,25.6,30.21,WNW,292,0.0,0.0,78,0.00,,OVC040,0.00,VWS V14.01,2013-11-08 02:42:00,
2013-11-07 21:47:00,31.1,25.0,30.21,NW,315,0.0,0.0,78,0.00,,OVC040,0.00,VWS V14.01,2013-11-08 02:47:00,
2013-11-07 21:52:00,31.1,25.0,30.21,WNW,292,0.0,0.0,78,0.00,,OVC040,0.00,VWS V14.01,2013-11-08 02:52:00,
2013-11-07 21:57:00,30.9,24.9,30.21,WNW,292,0.0,0.0,78,0.00,,OVC040,0.00,VWS V14.01,2013-11-08 02:57:00,
2013-11-07 22:02:00,30.4,24.7,30.21,WNW,292,0.0,0.0,79,0.00,,OVC040,0.00,VWS V14.01,2013-11-08 03:02:00,
2013-11-07 22:07:00,29.8,24.1,30.21,WNW,292,0.0,0.0,79,0.00,,OVC040,0.00,VWS V14.01,2013-11-08 03:07:00,
2013-11-07 22:12:00,29.5,24.1,30.18,WNW,292,0.0,0.0,80,0.00,,OVC040,0.00,VWS V14.01,2013-11-08 03:12:00,
2013-11-07 22:17:00,29.1,23.7,30.18,WNW,292,0.0,0.0,80,0.00,,OVC040,0.00,VWS V14.01,2013-11-08 03:17:00,
2013-11-07 22:22:00,28.9,23.6,30.18,WNW,292,0.0,0.0,80,0.00,,OVC040,0.00,VWS V14.01,2013-11-08 03:22:00,
2013-11-07 22:27:00,28.6,23.2,30.21,West,270,0.0,0.0,80,0.00,,OVC040,0.00,VWS V14.01,2013-11-08 03:27:00,
2013-11-07 22:32:00,28.9,23.9,30.21,West,270,0.0,0.0,81,0.00,,OVC040,0.00,VWS V14.01,2013-11-08 03:32:00,
2013-11-07 22:37:00,28.6,23.5,30.21,WSW,248,0.0,0.0,81,0.00,,OVC040,0.00,VWS V14.01,2013-11-08 03:37:00,
2013-11-07 22:42:00,28.2,23.1,30.18,SE,135,0.0,0.0,81,0.00,,OVC040,0.00,VWS V14.01,2013-11-08 03:42:00,
2013-11-07 22:47:00,27.7,22.6,30.18,WSW,248,0.0,0.0,81,0.00,,OVC040,0.00,VWS V14.01,2013-11-08 03:47:00,
2013-11-07 22:52:00,27.9,23.1,30.18,WSW,248,0.0,0.0,82,0.00,,OVC040,0.00,VWS V14.01,2013-11-08 03:52:00,
2013-11-07 22:57:00,27.7,22.9,30.21,WSW,248,0.0,0.0,82,0.00,,OVC040,0.00,VWS V14.01,2013-11-08 03:57:00,
2013-11-07 23:02:00,27.5,23.0,30.21,East,90,0.0,0.0,83,0.00,,OVC040,0.00,VWS V14.01,2013-11-08 04:02:00,
2013-11-07 23:07:00,27.3,22.9,30.21,South,180,0.0,0.0,83,0.00,,OVC040,0.00,VWS V14.01,2013-11-08 04:07:00,
2013-11-07 23:12:00,27.1,22.7,30.18,South,180,0.0,0.0,83,0.00,,OVC040,0.00,VWS V14.01,2013-11-08 04:12:00,
2013-11-07 23:17:00,27.0,22.5,30.18,East,90,0.0,0.0,83,0.00,,OVC040,0.00,VWS V14.01,2013-11-08 04:17:00,
2013-11-07 23:22:00,27.3,23.1,30.18,South,180,0.0,0.0,84,0.00,,OVC040,0.00,VWS V14.01,2013-11-08 04:22:00,
2013-11-07 23:27:00,26.8,22.3,30.21,South,180,0.0,0.0,83,0.00,,OVC040,0.00,VWS V14.01,2013-11-08 04:27:00,
2013-11-07 23:32:00,26.6,22.4,30.21,South,180,0.0,0.0,84,0.00,,CLR,0.00,VWS V14.01,2013-11-08 04:32:00,
2013-11-07 23:37:00,26.4,22.5,30.21,South,180,0.0,0.0,85,0.00,,CLR,0.00,VWS V14.01,2013-11-08 04:37:00,
2013-11-07 23:42:00,26.1,21.9,30.21,South,180,0.0,0.0,84,0.00,,CLR,0.00,VWS V14.01,2013-11-08 04:42:00,
2013-11-07 23:47:00,26.4,22.5,30.21,SE,135,0.0,0.0,85,0.00,,CLR,0.00,VWS V14.01,2013-11-08 04:47:00,
2013-11-07 23:52:00,26.1,22.2,30.21,SE,135,0.0,0.0,85,0.00,,CLR,0.00,VWS V14.01,2013-11-08 04:52:00,
2013-11-07 23:57:00,26.2,22.4,30.21,South,180,0.0,0.0,85,0.00,,CLR,0.00,VWS V14.01,2013-11-08 04:57:00,